sensor_id;sensor_type;location;lat;lon;timestamp;pressure;altitude;pressure_sealevel;temperature;humidity
68656;BME280;55638;51.122;13.606;2023-01-20T00:01:13;99480.56;;;0.87;58.43
68656;BME280;55638;51.122;13.606;2023-01-20T00:02:45;99477.16;;;0.85;58.49
68656;BME280;55638;51.122;13.606;2023-01-20T00:04:17;99477.06;;;0.86;58.63
68656;BME280;55638;51.122;13.606;2023-01-20T00:05:50;99476.22;;;0.86;58.39
68656;BME280;55638;51.122;13.606;2023-01-20T00:07:22;99481.50;;;0.86;58.38
68656;BME280;55638;51.122;13.606;2023-01-20T00:08:56;99480.66;;;0.85;58.34
68656;BME280;55638;51.122;13.606;2023-01-20T00:10:28;99478.88;;;0.86;58.23
68656;BME280;55638;51.122;13.606;2023-01-20T00:12:00;99483.31;;;0.85;58.40
68656;BME280;55638;51.122;13.606;2023-01-20T00:13:34;99485.97;;;0.85;58.43
68656;BME280;55638;51.122;13.606;2023-01-20T00:15:06;99484.16;;;0.86;58.39
68656;BME280;55638;51.122;13.606;2023-01-20T00:16:40;99488.53;;;0.87;58.43
68656;BME280;55638;51.122;13.606;2023-01-20T00:18:12;99487.78;;;0.85;58.50
68656;BME280;55638;51.122;13.606;2023-01-20T00:19:44;99488.63;;;0.85;58.50
68656;BME280;55638;51.122;13.606;2023-01-20T00:21:16;99490.31;;;0.86;58.47
68656;BME280;55638;51.122;13.606;2023-01-20T00:22:48;99488.53;;;0.87;58.52
68656;BME280;55638;51.122;13.606;2023-01-20T00:24:20;99492.97;;;0.86;58.52
68656;BME280;55638;51.122;13.606;2023-01-20T00:25:52;99493.84;;;0.87;58.49
68656;BME280;55638;51.122;13.606;2023-01-20T00:27:24;99491.19;;;0.87;58.62
68656;BME280;55638;51.122;13.606;2023-01-20T00:28:56;99493.84;;;0.87;58.61
68656;BME280;55638;51.122;13.606;2023-01-20T00:30:30;99495.63;;;0.86;58.73
68656;BME280;55638;51.122;13.606;2023-01-20T00:32:02;99493.84;;;0.87;58.52
68656;BME280;55638;51.122;13.606;2023-01-20T00:33:34;99499.13;;;0.87;58.68
68656;BME280;55638;51.122;13.606;2023-01-20T00:35:06;99507.09;;;0.87;58.49
68656;BME280;55638;51.122;13.606;2023-01-20T00:36:38;99504.44;;;0.87;58.64
68656;BME280;55638;51.122;13.606;2023-01-20T00:38:10;99505.28;;;0.88;58.62
68656;BME280;55638;51.122;13.606;2023-01-20T00:39:42;99508.91;;;0.86;58.68
68656;BME280;55638;51.122;13.606;2023-01-20T00:41:14;99509.75;;;0.87;58.73
68656;BME280;55638;51.122;13.606;2023-01-20T00:42:46;99508.91;;;0.86;58.54
68656;BME280;55638;51.122;13.606;2023-01-20T00:44:18;99522.16;;;0.86;58.60
68656;BME280;55638;51.122;13.606;2023-01-20T00:45:50;99515.16;;;0.85;58.67
68656;BME280;55638;51.122;13.606;2023-01-20T00:47:21;99507.19;;;0.85;58.87
68656;BME280;55638;51.122;13.606;2023-01-20T00:48:53;99520.38;;;0.87;58.69
68656;BME280;55638;51.122;13.606;2023-01-20T00:50:25;99517.72;;;0.87;58.77
68656;BME280;55638;51.122;13.606;2023-01-20T00:51:57;99522.06;;;0.88;58.76
68656;BME280;55638;51.122;13.606;2023-01-20T00:53:29;99525.59;;;0.89;58.68
68656;BME280;55638;51.122;13.606;2023-01-20T00:55:01;99526.38;;;0.91;58.76
68656;BME280;55638;51.122;13.606;2023-01-20T00:56:33;99530.81;;;0.90;58.74
68656;BME280;55638;51.122;13.606;2023-01-20T00:58:05;99524.66;;;0.90;58.71
68656;BME280;55638;51.122;13.606;2023-01-20T00:59:37;99534.31;;;0.91;58.83
68656;BME280;55638;51.122;13.606;2023-01-20T01:01:09;99536.13;;;0.90;58.85
68656;BME280;55638;51.122;13.606;2023-01-20T01:02:41;99539.72;;;0.89;58.83
68656;BME280;55638;51.122;13.606;2023-01-20T01:04:12;99542.28;;;0.91;58.86
68656;BME280;55638;51.122;13.606;2023-01-20T01:05:44;99543.22;;;0.90;58.79
68656;BME280;55638;51.122;13.606;2023-01-20T01:07:17;99541.53;;;0.89;58.63
68656;BME280;55638;51.122;13.606;2023-01-20T01:08:49;99545.03;;;0.89;58.74
68656;BME280;55638;51.122;13.606;2023-01-20T01:10:21;99544.19;;;0.89;58.65
68656;BME280;55638;51.122;13.606;2023-01-20T01:11:52;99555.66;;;0.89;58.64
68656;BME280;55638;51.122;13.606;2023-01-20T01:13:24;99554.84;;;0.87;58.85
68656;BME280;55638;51.122;13.606;2023-01-20T01:14:56;99569.75;;;0.90;58.67
68656;BME280;55638;51.122;13.606;2023-01-20T01:16:27;99562.81;;;0.87;58.91
68656;BME280;55638;51.122;13.606;2023-01-20T01:18:00;99571.72;;;0.86;58.95
68656;BME280;55638;51.122;13.606;2023-01-20T01:19:32;99567.28;;;0.86;58.74
68656;BME280;55638;51.122;13.606;2023-01-20T01:21:12;99573.59;;;0.84;58.89
68656;BME280;55638;51.122;13.606;2023-01-20T01:22:44;99570.03;;;0.85;58.78
68656;BME280;55638;51.122;13.606;2023-01-20T01:24:16;99577.09;;;0.84;58.75
68656;BME280;55638;51.122;13.606;2023-01-20T01:25:47;99574.44;;;0.84;58.90
68656;BME280;55638;51.122;13.606;2023-01-20T01:27:19;99579.00;;;0.82;58.80
68656;BME280;55638;51.122;13.606;2023-01-20T01:28:51;99579.91;;;0.81;58.99
68656;BME280;55638;51.122;13.606;2023-01-20T01:30:23;99586.94;;;0.82;58.86
68656;BME280;55638;51.122;13.606;2023-01-20T01:31:55;99580.88;;;0.80;58.94
68656;BME280;55638;51.122;13.606;2023-01-20T01:33:28;99585.22;;;0.81;59.12
68656;BME280;55638;51.122;13.606;2023-01-20T01:35:00;99587.03;;;0.81;59.07
68656;BME280;55638;51.122;13.606;2023-01-20T01:36:32;99594.13;;;0.80;58.98
68656;BME280;55638;51.122;13.606;2023-01-20T01:38:03;99587.97;;;0.80;58.89
68656;BME280;55638;51.122;13.606;2023-01-20T01:39:35;99593.28;;;0.80;59.02
68656;BME280;55638;51.122;13.606;2023-01-20T01:41:09;99587.97;;;0.80;59.18
68656;BME280;55638;51.122;13.606;2023-01-20T01:42:41;99590.63;;;0.80;59.18
68656;BME280;55638;51.122;13.606;2023-01-20T01:44:14;99590.63;;;0.80;59.10
68656;BME280;55638;51.122;13.606;2023-01-20T01:45:46;99592.41;;;0.79;59.11
68656;BME280;55638;51.122;13.606;2023-01-20T01:47:18;99601.22;;;0.80;59.19
68656;BME280;55638;51.122;13.606;2023-01-20T01:48:50;99603.03;;;0.79;59.36
68656;BME280;55638;51.122;13.606;2023-01-20T01:50:33;99599.53;;;0.79;59.28
68656;BME280;55638;51.122;13.606;2023-01-20T01:52:08;99603.88;;;0.80;59.09
68656;BME280;55638;51.122;13.606;2023-01-20T01:53:43;99604.84;;;0.79;59.37
68656;BME280;55638;51.122;13.606;2023-01-20T01:55:20;99609.19;;;0.80;59.33
68656;BME280;55638;51.122;13.606;2023-01-20T01:56:53;99606.59;;;0.78;58.99
68656;BME280;55638;51.122;13.606;2023-01-20T01:58:29;99608.41;;;0.78;59.25
68656;BME280;55638;51.122;13.606;2023-01-20T02:00:02;99608.41;;;0.78;59.23
68656;BME280;55638;51.122;13.606;2023-01-20T02:01:50;99612.84;;;0.77;59.33
68656;BME280;55638;51.122;13.606;2023-01-20T02:03:25;99613.81;;;0.76;59.36
68656;BME280;55638;51.122;13.606;2023-01-20T02:04:59;99609.34;;;0.77;59.29
68656;BME280;55638;51.122;13.606;2023-01-20T02:06:33;99611.22;;;0.75;59.43
68656;BME280;55638;51.122;13.606;2023-01-20T02:08:06;99613.81;;;0.76;59.12
68656;BME280;55638;51.122;13.606;2023-01-20T02:09:38;99607.72;;;0.74;59.28
68656;BME280;55638;51.122;13.606;2023-01-20T02:11:10;99606.84;;;0.74;59.46
68656;BME280;55638;51.122;13.606;2023-01-20T02:12:44;99611.31;;;0.73;59.22
68656;BME280;55638;51.122;13.606;2023-01-20T02:14:30;99616.69;;;0.72;59.85
68656;BME280;55638;51.122;13.606;2023-01-20T02:16:16;99620.28;;;0.71;59.51
68656;BME280;55638;51.122;13.606;2023-01-20T02:18:09;99621.22;;;0.70;59.67
68656;BME280;55638;51.122;13.606;2023-01-20T02:22:00;99623.03;;;0.69;59.61
68656;BME280;55638;51.122;13.606;2023-01-20T02:23:57;99621.13;;;0.71;59.46
68656;BME280;55638;51.122;13.606;2023-01-20T02:27:17;99615.06;;;0.69;59.56
68656;BME280;55638;51.122;13.606;2023-01-20T02:31:11;99622.13;;;0.69;59.62
68656;BME280;55638;51.122;13.606;2023-01-20T02:33:02;99619.69;;;0.66;59.68
68656;BME280;55638;51.122;13.606;2023-01-20T02:36:27;99623.19;;;0.66;59.71
68656;BME280;55638;51.122;13.606;2023-01-20T02:38:10;99629.41;;;0.65;59.78
68656;BME280;55638;51.122;13.606;2023-01-20T02:40:15;99625.91;;;0.65;59.75
68656;BME280;55638;51.122;13.606;2023-01-20T02:43:35;99636.50;;;0.65;59.72
68656;BME280;55638;51.122;13.606;2023-01-20T02:45:16;99639.16;;;0.65;59.79
68656;BME280;55638;51.122;13.606;2023-01-20T02:47:11;99644.63;;;0.61;59.80
68656;BME280;55638;51.122;13.606;2023-01-20T02:48:50;99641.81;;;0.65;59.59
68656;BME280;55638;51.122;13.606;2023-01-20T02:52:14;99640.09;;;0.63;59.79
68656;BME280;55638;51.122;13.606;2023-01-20T02:53:52;99639.31;;;0.61;59.69
68656;BME280;55638;51.122;13.606;2023-01-20T02:55:37;99637.50;;;0.62;59.65
68656;BME280;55638;51.122;13.606;2023-01-20T02:57:13;99653.44;;;0.62;59.95
68656;BME280;55638;51.122;13.606;2023-01-20T02:58:56;99648.31;;;0.59;59.87
68656;BME280;55638;51.122;13.606;2023-01-20T03:00:35;99649.16;;;0.59;59.88
68656;BME280;55638;51.122;13.606;2023-01-20T03:02:13;99651.88;;;0.58;59.89
68656;BME280;55638;51.122;13.606;2023-01-20T03:03:48;99647.44;;;0.58;59.90
68656;BME280;55638;51.122;13.606;2023-01-20T03:05:24;99656.31;;;0.57;59.79
68656;BME280;55638;51.122;13.606;2023-01-20T03:06:57;99651.03;;;0.57;60.03
68656;BME280;55638;51.122;13.606;2023-01-20T03:08:31;99654.63;;;0.56;59.80
68656;BME280;55638;51.122;13.606;2023-01-20T03:10:06;99659.06;;;0.56;59.94
68656;BME280;55638;51.122;13.606;2023-01-20T03:11:44;99658.28;;;0.54;60.01
68656;BME280;55638;51.122;13.606;2023-01-20T03:14:01;99655.63;;;0.54;60.18
68656;BME280;55638;51.122;13.606;2023-01-20T03:15:48;99662.72;;;0.53;60.11
68656;BME280;55638;51.122;13.606;2023-01-20T03:17:23;99663.66;;;0.52;60.00
68656;BME280;55638;51.122;13.606;2023-01-20T03:18:55;99661.00;;;0.52;60.00
68656;BME280;55638;51.122;13.606;2023-01-20T03:20:26;99661.94;;;0.51;60.11
68656;BME280;55638;51.122;13.606;2023-01-20T03:21:58;99666.38;;;0.51;60.14
68656;BME280;55638;51.122;13.606;2023-01-20T03:23:34;99666.47;;;0.49;60.32
68656;BME280;55638;51.122;13.606;2023-01-20T03:25:07;99669.03;;;0.51;60.21
68656;BME280;55638;51.122;13.606;2023-01-20T03:26:40;99676.16;;;0.50;60.18
68656;BME280;55638;51.122;13.606;2023-01-20T03:28:12;99670.00;;;0.50;60.00
68656;BME280;55638;51.122;13.606;2023-01-20T03:29:44;99669.13;;;0.49;60.31
68656;BME280;55638;51.122;13.606;2023-01-20T03:31:40;99678.16;;;0.45;60.75
68656;BME280;55638;51.122;13.606;2023-01-20T03:33:13;99684.16;;;0.49;60.05
68656;BME280;55638;51.122;13.606;2023-01-20T03:34:46;99683.31;;;0.48;60.08
68656;BME280;55638;51.122;13.606;2023-01-20T03:36:20;99684.25;;;0.47;60.37
68656;BME280;55638;51.122;13.606;2023-01-20T03:37:52;99688.59;;;0.48;60.31
68656;BME280;55638;51.122;13.606;2023-01-20T03:39:24;99689.56;;;0.47;60.23
68656;BME280;55638;51.122;13.606;2023-01-20T03:42:56;99693.22;;;0.45;60.54
68656;BME280;55638;51.122;13.606;2023-01-20T03:44:48;99698.50;;;0.45;60.77
68656;BME280;55638;51.122;13.606;2023-01-20T03:46:39;99695.00;;;0.44;60.69
68656;BME280;55638;51.122;13.606;2023-01-20T03:48:21;99694.06;;;0.45;60.51
68656;BME280;55638;51.122;13.606;2023-01-20T03:50:06;99699.38;;;0.45;60.57
68656;BME280;55638;51.122;13.606;2023-01-20T03:52:01;99695.94;;;0.43;60.81
68656;BME280;55638;51.122;13.606;2023-01-20T03:53:47;99703.91;;;0.43;60.86
68656;BME280;55638;51.122;13.606;2023-01-20T03:55:34;99705.53;;;0.46;60.51
68656;BME280;55638;51.122;13.606;2023-01-20T03:57:12;99702.97;;;0.44;60.39
68656;BME280;55638;51.122;13.606;2023-01-20T03:58:49;99706.47;;;0.45;60.50
68656;BME280;55638;51.122;13.606;2023-01-20T04:00:25;99705.53;;;0.46;60.56
68656;BME280;55638;51.122;13.606;2023-01-20T04:02:02;99702.97;;;0.44;60.41
68656;BME280;55638;51.122;13.606;2023-01-20T04:03:38;99703.81;;;0.45;60.56
68656;BME280;55638;51.122;13.606;2023-01-20T04:05:11;99701.16;;;0.45;60.58
68656;BME280;55638;51.122;13.606;2023-01-20T04:06:44;99702.97;;;0.44;60.40
68656;BME280;55638;51.122;13.606;2023-01-20T04:08:20;99702.97;;;0.44;60.60
68656;BME280;55638;51.122;13.606;2023-01-20T04:09:56;99707.41;;;0.44;60.71
68656;BME280;55638;51.122;13.606;2023-01-20T04:11:29;99698.50;;;0.45;60.35
68656;BME280;55638;51.122;13.606;2023-01-20T04:13:00;99700.31;;;0.44;60.53
68656;BME280;55638;51.122;13.606;2023-01-20T04:14:34;99706.47;;;0.45;60.65
68656;BME280;55638;51.122;13.606;2023-01-20T04:16:12;99708.25;;;0.44;60.63
68656;BME280;55638;51.122;13.606;2023-01-20T04:17:46;99705.63;;;0.44;60.48
68656;BME280;55638;51.122;13.606;2023-01-20T04:19:17;99704.66;;;0.45;60.68
68656;BME280;55638;51.122;13.606;2023-01-20T04:20:52;99713.47;;;0.46;60.76
68656;BME280;55638;51.122;13.606;2023-01-20T04:22:32;99714.41;;;0.45;60.74
68656;BME280;55638;51.122;13.606;2023-01-20T04:25:47;99717.94;;;0.45;60.66
68656;BME280;55638;51.122;13.606;2023-01-20T04:27:18;99725.88;;;0.45;60.63
68656;BME280;55638;51.122;13.606;2023-01-20T04:28:50;99717.94;;;0.45;60.55
68656;BME280;55638;51.122;13.606;2023-01-20T04:30:22;99722.38;;;0.45;60.83
68656;BME280;55638;51.122;13.606;2023-01-20T04:32:02;99725.88;;;0.45;60.85
68656;BME280;55638;51.122;13.606;2023-01-20T04:33:37;99730.28;;;0.46;60.67
68656;BME280;55638;51.122;13.606;2023-01-20T04:35:12;99732.97;;;0.45;60.83
68656;BME280;55638;51.122;13.606;2023-01-20T04:36:45;99727.63;;;0.46;60.54
68656;BME280;55638;51.122;13.606;2023-01-20T04:38:17;99729.31;;;0.47;60.67
68656;BME280;55638;51.122;13.606;2023-01-20T04:39:49;99739.84;;;0.49;60.65
68656;BME280;55638;51.122;13.606;2023-01-20T04:41:20;99727.63;;;0.46;60.71
68656;BME280;55638;51.122;13.606;2023-01-20T04:42:52;99731.97;;;0.47;60.73
68656;BME280;55638;51.122;13.606;2023-01-20T04:44:24;99739.00;;;0.48;60.85
68656;BME280;55638;51.122;13.606;2023-01-20T04:45:56;99743.38;;;0.49;60.79
68656;BME280;55638;51.122;13.606;2023-01-20T04:47:31;99736.44;;;0.47;60.95
68656;BME280;55638;51.122;13.606;2023-01-20T04:49:04;99737.19;;;0.49;60.84
68656;BME280;55638;51.122;13.606;2023-01-20T04:50:39;99743.38;;;0.49;61.00
68656;BME280;55638;51.122;13.606;2023-01-20T04:52:11;99740.72;;;0.49;60.93
68656;BME280;55638;51.122;13.606;2023-01-20T04:53:43;99739.84;;;0.49;60.87
68656;BME280;55638;51.122;13.606;2023-01-20T04:55:14;99750.41;;;0.50;60.79
68656;BME280;55638;51.122;13.606;2023-01-20T04:56:47;99751.25;;;0.51;60.98
68656;BME280;55638;51.122;13.606;2023-01-20T04:58:19;99752.09;;;0.51;60.80
68656;BME280;55638;51.122;13.606;2023-01-20T04:59:51;99751.25;;;0.51;60.88
68656;BME280;55638;51.122;13.606;2023-01-20T05:01:22;99754.75;;;0.51;60.91
68656;BME280;55638;51.122;13.606;2023-01-20T05:02:57;99751.25;;;0.51;60.89
68656;BME280;55638;51.122;13.606;2023-01-20T05:04:29;99757.41;;;0.51;60.85
68656;BME280;55638;51.122;13.606;2023-01-20T05:06:01;99759.13;;;0.52;60.76
68656;BME280;55638;51.122;13.606;2023-01-20T05:07:33;99765.31;;;0.53;60.67
68656;BME280;55638;51.122;13.606;2023-01-20T05:09:04;99766.16;;;0.53;60.81
68656;BME280;55638;51.122;13.606;2023-01-20T05:10:36;99768.81;;;0.53;60.74
68656;BME280;55638;51.122;13.606;2023-01-20T05:12:08;99771.47;;;0.53;60.81
68656;BME280;55638;51.122;13.606;2023-01-20T05:13:39;99778.63;;;0.51;60.73
68656;BME280;55638;51.122;13.606;2023-01-20T05:15:11;99773.31;;;0.51;60.65
68656;BME280;55638;51.122;13.606;2023-01-20T05:16:43;99774.16;;;0.52;60.78
68656;BME280;55638;51.122;13.606;2023-01-20T05:18:17;99774.16;;;0.52;60.85
68656;BME280;55638;51.122;13.606;2023-01-20T05:19:49;99774.16;;;0.52;61.02
68656;BME280;55638;51.122;13.606;2023-01-20T05:21:20;99779.56;;;0.50;60.94
68656;BME280;55638;51.122;13.606;2023-01-20T05:22:52;99773.31;;;0.51;60.88
68656;BME280;55638;51.122;13.606;2023-01-20T05:24:24;99775.97;;;0.51;61.02
68656;BME280;55638;51.122;13.606;2023-01-20T05:25:55;99779.47;;;0.52;60.85
68656;BME280;55638;51.122;13.606;2023-01-20T05:27:27;99782.13;;;0.52;60.94
68656;BME280;55638;51.122;13.606;2023-01-20T05:28:59;99786.53;;;0.53;61.00
68656;BME280;55638;51.122;13.606;2023-01-20T05:30:31;99785.63;;;0.52;60.79
68656;BME280;55638;51.122;13.606;2023-01-20T05:32:03;99790.94;;;0.52;60.92
68656;BME280;55638;51.122;13.606;2023-01-20T05:33:34;99789.16;;;0.53;60.86
68656;BME280;55638;51.122;13.606;2023-01-20T05:35:07;99786.53;;;0.53;60.71
68656;BME280;55638;51.122;13.606;2023-01-20T05:36:39;99790.03;;;0.53;60.86
68656;BME280;55638;51.122;13.606;2023-01-20T05:38:11;99783.78;;;0.54;60.74
68656;BME280;55638;51.122;13.606;2023-01-20T05:39:42;99791.81;;;0.53;60.94
68656;BME280;55638;51.122;13.606;2023-01-20T05:41:14;99790.94;;;0.52;60.92
68656;BME280;55638;51.122;13.606;2023-01-20T05:42:46;99796.25;;;0.52;60.81
68656;BME280;55638;51.122;13.606;2023-01-20T05:44:17;99796.25;;;0.52;60.81
68656;BME280;55638;51.122;13.606;2023-01-20T05:45:49;99798.91;;;0.52;60.87
68656;BME280;55638;51.122;13.606;2023-01-20T05:47:21;99801.53;;;0.52;60.81
68656;BME280;55638;51.122;13.606;2023-01-20T05:48:53;99806.84;;;0.52;60.71
68656;BME280;55638;51.122;13.606;2023-01-20T05:50:26;99809.44;;;0.54;60.86
68656;BME280;55638;51.122;13.606;2023-01-20T05:51:58;99811.25;;;0.53;61.07
68656;BME280;55638;51.122;13.606;2023-01-20T05:53:30;99806.78;;;0.54;60.88
68656;BME280;55638;51.122;13.606;2023-01-20T05:55:02;99807.75;;;0.53;60.80
68656;BME280;55638;51.122;13.606;2023-01-20T05:56:33;99814.75;;;0.54;61.02
68656;BME280;55638;51.122;13.606;2023-01-20T05:58:05;99817.41;;;0.54;60.92
68656;BME280;55638;51.122;13.606;2023-01-20T05:59:37;99811.25;;;0.53;60.92
68656;BME280;55638;51.122;13.606;2023-01-20T06:01:11;99821.00;;;0.53;61.04
68656;BME280;55638;51.122;13.606;2023-01-20T06:02:43;99811.25;;;0.53;60.88
68656;BME280;55638;51.122;13.606;2023-01-20T06:04:15;99821.84;;;0.53;60.72
68656;BME280;55638;51.122;13.606;2023-01-20T06:05:47;99826.31;;;0.53;60.94
68656;BME280;55638;51.122;13.606;2023-01-20T06:07:19;99822.75;;;0.52;60.78
68656;BME280;55638;51.122;13.606;2023-01-20T06:08:52;99824.50;;;0.53;60.89
68656;BME280;55638;51.122;13.606;2023-01-20T06:10:24;99832.47;;;0.53;60.93
68656;BME280;55638;51.122;13.606;2023-01-20T06:11:58;99825.41;;;0.52;60.96
68656;BME280;55638;51.122;13.606;2023-01-20T06:13:29;99828.06;;;0.52;61.03
68656;BME280;55638;51.122;13.606;2023-01-20T06:15:02;99829.00;;;0.51;61.00
68656;BME280;55638;51.122;13.606;2023-01-20T06:16:33;99833.38;;;0.52;60.82
68656;BME280;55638;51.122;13.606;2023-01-20T06:18:05;99836.03;;;0.52;60.98
68656;BME280;55638;51.122;13.606;2023-01-20T06:19:37;99833.38;;;0.52;61.05
68656;BME280;55638;51.122;13.606;2023-01-20T06:21:09;99841.31;;;0.52;60.90
68656;BME280;55638;51.122;13.606;2023-01-20T06:22:40;99843.13;;;0.52;60.99
68656;BME280;55638;51.122;13.606;2023-01-20T06:24:12;99841.31;;;0.52;60.91
68656;BME280;55638;51.122;13.606;2023-01-20T06:25:44;99843.97;;;0.52;61.02
68656;BME280;55638;51.122;13.606;2023-01-20T06:27:15;99845.72;;;0.53;60.90
68656;BME280;55638;51.122;13.606;2023-01-20T06:28:47;99843.94;;;0.54;60.99
68656;BME280;55638;51.122;13.606;2023-01-20T06:30:19;99847.53;;;0.53;60.78
68656;BME280;55638;51.122;13.606;2023-01-20T06:31:51;99846.63;;;0.52;60.72
68656;BME280;55638;51.122;13.606;2023-01-20T06:33:22;99855.47;;;0.53;60.94
68656;BME280;55638;51.122;13.606;2023-01-20T06:34:54;99854.59;;;0.52;60.87
68656;BME280;55638;51.122;13.606;2023-01-20T06:36:26;99854.59;;;0.52;61.07
68656;BME280;55638;51.122;13.606;2023-01-20T06:37:57;99859.88;;;0.52;60.86
68656;BME280;55638;51.122;13.606;2023-01-20T06:39:29;99860.78;;;0.53;60.86
68656;BME280;55638;51.122;13.606;2023-01-20T06:41:03;99861.69;;;0.52;61.03
68656;BME280;55638;51.122;13.606;2023-01-20T06:42:35;99859.03;;;0.52;60.80
68656;BME280;55638;51.122;13.606;2023-01-20T06:44:06;99862.53;;;0.52;60.83
68656;BME280;55638;51.122;13.606;2023-01-20T06:45:38;99863.50;;;0.51;61.10
68656;BME280;55638;51.122;13.606;2023-01-20T06:47:10;99860.84;;;0.51;61.00
68656;BME280;55638;51.122;13.606;2023-01-20T06:48:43;99867.94;;;0.51;61.00
68656;BME280;55638;51.122;13.606;2023-01-20T06:50:15;99865.19;;;0.52;61.10
68656;BME280;55638;51.122;13.606;2023-01-20T06:51:47;99870.50;;;0.52;61.10
68656;BME280;55638;51.122;13.606;2023-01-20T06:53:19;99869.66;;;0.52;61.17
68656;BME280;55638;51.122;13.606;2023-01-20T06:54:51;99875.81;;;0.52;61.16
68656;BME280;55638;51.122;13.606;2023-01-20T06:56:23;99875.81;;;0.52;61.08
68656;BME280;55638;51.122;13.606;2023-01-20T06:57:55;99876.69;;;0.53;61.13
68656;BME280;55638;51.122;13.606;2023-01-20T06:59:26;99882.00;;;0.53;61.14
68656;BME280;55638;51.122;13.606;2023-01-20T07:01:05;99882.06;;;0.51;61.28
68656;BME280;55638;51.122;13.606;2023-01-20T07:02:37;99882.84;;;0.53;61.04
68656;BME280;55638;51.122;13.606;2023-01-20T07:04:12;99881.09;;;0.52;61.30
68656;BME280;55638;51.122;13.606;2023-01-20T07:05:57;99895.31;;;0.51;61.30
68656;BME280;55638;51.122;13.606;2023-01-20T07:07:29;99891.56;;;0.55;61.05
68656;BME280;55638;51.122;13.606;2023-01-20T07:09:01;99895.16;;;0.54;61.23
68656;BME280;55638;51.122;13.606;2023-01-20T07:10:33;99895.16;;;0.54;61.13
68656;BME280;55638;51.122;13.606;2023-01-20T07:12:05;99892.53;;;0.54;61.00
68656;BME280;55638;51.122;13.606;2023-01-20T07:13:36;99897.81;;;0.54;61.17
68656;BME280;55638;51.122;13.606;2023-01-20T07:15:08;99901.34;;;0.55;61.22
68656;BME280;55638;51.122;13.606;2023-01-20T07:16:40;99911.03;;;0.56;61.22
68656;BME280;55638;51.122;13.606;2023-01-20T07:18:12;99907.50;;;0.55;61.04
68656;BME280;55638;51.122;13.606;2023-01-20T07:19:44;99906.63;;;0.55;61.09
68656;BME280;55638;51.122;13.606;2023-01-20T07:21:16;99909.22;;;0.56;61.29
68656;BME280;55638;51.122;13.606;2023-01-20T07:22:47;99923.34;;;0.57;61.28
68656;BME280;55638;51.122;13.606;2023-01-20T07:24:19;99926.84;;;0.57;61.42
68656;BME280;55638;51.122;13.606;2023-01-20T07:26:00;99934.00;;;0.55;61.47
68656;BME280;55638;51.122;13.606;2023-01-20T07:27:32;99935.66;;;0.58;61.49
68656;BME280;55638;51.122;13.606;2023-01-20T07:29:04;99939.19;;;0.58;61.17
68656;BME280;55638;51.122;13.606;2023-01-20T07:30:36;99944.47;;;0.58;61.24
68656;BME280;55638;51.122;13.606;2023-01-20T07:32:08;99943.56;;;0.59;61.37
68656;BME280;55638;51.122;13.606;2023-01-20T07:33:40;99950.59;;;0.60;61.18
68656;BME280;55638;51.122;13.606;2023-01-20T07:35:12;99948.78;;;0.61;61.26
68656;BME280;55638;51.122;13.606;2023-01-20T07:36:44;99945.19;;;0.62;61.38
68656;BME280;55638;51.122;13.606;2023-01-20T07:38:16;99953.09;;;0.63;61.33
68656;BME280;55638;51.122;13.606;2023-01-20T07:39:48;99952.16;;;0.65;61.44
68656;BME280;55638;51.122;13.606;2023-01-20T07:41:20;99957.47;;;0.65;61.44
68656;BME280;55638;51.122;13.606;2023-01-20T07:42:52;99956.56;;;0.66;61.32
68656;BME280;55638;51.122;13.606;2023-01-20T07:44:24;99961.84;;;0.66;61.30
68656;BME280;55638;51.122;13.606;2023-01-20T07:45:57;99968.03;;;0.66;61.32
68656;BME280;55638;51.122;13.606;2023-01-20T07:47:29;99961.69;;;0.69;61.43
68656;BME280;55638;51.122;13.606;2023-01-20T07:49:01;99968.75;;;0.70;61.26
68656;BME280;55638;51.122;13.606;2023-01-20T07:50:34;99967.78;;;0.71;61.31
68656;BME280;55638;51.122;13.606;2023-01-20T07:52:06;99967.75;;;0.72;61.48
68656;BME280;55638;51.122;13.606;2023-01-20T07:53:39;99973.06;;;0.72;61.50
68656;BME280;55638;51.122;13.606;2023-01-20T07:55:11;99972.03;;;0.75;61.25
68656;BME280;55638;51.122;13.606;2023-01-20T07:56:44;99978.22;;;0.75;61.38
68656;BME280;55638;51.122;13.606;2023-01-20T07:58:15;99979.06;;;0.76;61.43
68656;BME280;55638;51.122;13.606;2023-01-20T07:59:47;99986.94;;;0.77;61.31
68656;BME280;55638;51.122;13.606;2023-01-20T08:01:25;99993.09;;;0.78;61.51
68656;BME280;55638;51.122;13.606;2023-01-20T08:02:57;99984.16;;;0.80;61.23
68656;BME280;55638;51.122;13.606;2023-01-20T08:04:29;99992.91;;;0.82;61.47
68656;BME280;55638;51.122;13.606;2023-01-20T08:06:05;99984.09;;;0.82;61.46
68656;BME280;55638;51.122;13.606;2023-01-20T08:07:38;99981.31;;;0.85;61.45
68656;BME280;55638;51.122;13.606;2023-01-20T08:09:09;99986.53;;;0.86;61.47
68656;BME280;55638;51.122;13.606;2023-01-20T08:10:42;99989.97;;;0.89;61.51
68656;BME280;55638;51.122;13.606;2023-01-20T08:12:14;99996.16;;;0.89;61.36
68656;BME280;55638;51.122;13.606;2023-01-20T08:13:46;99988.94;;;0.91;61.23
68656;BME280;55638;51.122;13.606;2023-01-20T08:15:17;99996.00;;;0.92;61.21
68656;BME280;55638;51.122;13.606;2023-01-20T08:16:49;99995.09;;;0.93;61.43
68656;BME280;55638;51.122;13.606;2023-01-20T08:18:21;99997.59;;;0.96;61.42
68656;BME280;55638;51.122;13.606;2023-01-20T08:19:53;100001.13;;;0.97;61.36
68656;BME280;55638;51.122;13.606;2023-01-20T08:21:26;100010.72;;;0.99;61.17
68656;BME280;55638;51.122;13.606;2023-01-20T08:22:59;100008.06;;;0.99;61.19
68656;BME280;55638;51.122;13.606;2023-01-20T08:24:30;100018.56;;;1.02;61.16
68656;BME280;55638;51.122;13.606;2023-01-20T08:26:04;100013.25;;;1.02;61.18
68656;BME280;55638;51.122;13.606;2023-01-20T08:27:36;100006.06;;;1.04;61.32
68656;BME280;55638;51.122;13.606;2023-01-20T08:29:08;100014.81;;;1.06;61.37
68656;BME280;55638;51.122;13.606;2023-01-20T08:30:40;100006.78;;;1.08;61.47
68656;BME280;55638;51.122;13.606;2023-01-20T08:32:12;100017.28;;;1.11;61.37
68656;BME280;55638;51.122;13.606;2023-01-20T08:33:44;100010.94;;;1.14;61.47